Time;durP1;ratioP1;P1;durP2;ratioP2;P2;SDS_P1;SDS_P2;PMS_P1;PMS_P2;Temp;Humidity;BMP_temperature;BMP_pressure;BME280_temperature;BME280_humidity;BME280_pressure;Samples;Min_cycle;Max_cycle;Signal;HPM_P1;HPM_P2
2022/07/29 00:00:46;;;;;;;;;;;24.50;46.20;;;;;;491675;240;1233;-71
2022/07/29 00:02:48;;;;;;;;;;;24.60;46.00;;;;;;491690;240;1098;-71
2022/07/29 00:04:49;;;;;;;;;;;24.60;46.00;;;;;;491685;240;1366;-71
2022/07/29 00:06:50;;;;;;;;;;;24.70;46.00;;;;;;491638;240;2112;-71
2022/07/29 00:08:51;;;;;;;;;;;24.60;46.00;;;;;;491674;240;1261;-71
2022/07/29 00:10:53;;;;;;;;;;;24.60;46.00;;;;;;491658;240;1247;-71
2022/07/29 00:12:54;;;;;;;;;;;24.60;46.10;;;;;;491656;240;1225;-71
2022/07/29 00:14:56;;;;;;;;;;;24.40;46.40;;;;;;491741;240;1243;-71
2022/07/29 00:16:57;;;;;;;;;;;24.40;46.50;;;;;;491711;240;1197;-71
2022/07/29 00:18:58;;;;;;;;;;;24.50;46.40;;;;;;491681;240;1304;-70
2022/07/29 00:21:00;;;;;;;;;;;24.50;46.30;;;;;;491716;240;1227;-70
2022/07/29 00:23:01;;;;;;;;;;;24.50;46.20;;;;;;491676;240;1158;-70
2022/07/29 00:25:02;;;;;;;;;;;24.50;46.20;;;;;;491705;240;1085;-71
2022/07/29 00:27:03;;;;;;;;;;;24.50;46.30;;;;;;491704;240;2132;-71
2022/07/29 00:29:05;;;;;;;;;;;24.40;46.40;;;;;;491664;240;1295;-71
2022/07/29 00:31:07;;;;;;;;;;;24.50;46.40;;;;;;491770;240;1317;-71
2022/07/29 00:33:08;;;;;;;;;;;24.50;46.30;;;;;;491649;240;1883;-71
2022/07/29 00:37:29;;;;;;;;;;;24.60;46.30;;;;;;491604;242;1148;-71
2022/07/29 00:39:30;;;;;;;;;;;24.60;46.10;;;;;;491712;240;1133;-71
2022/07/29 00:41:31;;;;;;;;;;;24.60;46.10;;;;;;491660;240;1128;-71
2022/07/29 00:43:33;;;;;;;;;;;24.60;46.10;;;;;;491646;240;1222;-71
2022/07/29 00:45:34;;;;;;;;;;;24.60;46.00;;;;;;491673;240;1185;-71
2022/07/29 00:47:35;;;;;;;;;;;24.50;46.30;;;;;;491710;240;2176;-71
2022/07/29 00:49:37;;;;;;;;;;;24.60;46.10;;;;;;491700;240;1157;-71
2022/07/29 00:51:38;;;;;;;;;;;24.60;46.00;;;;;;491613;240;1079;-71
2022/07/29 00:53:39;;;;;;;;;;;24.60;46.10;;;;;;491684;240;1149;-71
2022/07/29 00:55:41;;;;;;;;;;;24.50;46.40;;;;;;491689;240;1161;-71
2022/07/29 00:57:42;;;;;;;;;;;24.50;46.40;;;;;;491671;240;1182;-71
2022/07/29 00:59:43;;;;;;;;;;;24.50;46.40;;;;;;491710;240;1163;-71
2022/07/29 01:01:45;;;;;;;;;;;24.50;46.30;;;;;;491666;240;1188;-71
2022/07/29 01:03:46;;;;;;;;;;;24.50;46.30;;;;;;491727;240;1059;-71
2022/07/29 01:05:47;;;;;;;;;;;24.40;46.30;;;;;;491680;240;1135;-71
2022/07/29 01:07:49;;;;;;;;;;;24.50;46.30;;;;;;491650;240;2129;-71
2022/07/29 01:09:50;;;;;;;;;;;24.50;46.30;;;;;;491658;240;1109;-71
2022/07/29 01:11:51;;;;;;;;;;;24.50;46.30;;;;;;491644;240;1102;-71
2022/07/29 01:13:53;;;;;;;;;;;24.50;46.40;;;;;;491724;240;1220;-71
2022/07/29 01:15:54;;;;;;;;;;;24.50;46.30;;;;;;491746;240;1135;-71
2022/07/29 01:17:55;;;;;;;;;;;24.60;46.20;;;;;;491672;240;1165;-71
2022/07/29 01:19:57;;;;;;;;;;;24.60;46.10;;;;;;491696;240;1284;-71
2022/07/29 01:21:58;;;;;;;;;;;24.60;46.10;;;;;;491645;240;1890;-71
2022/07/29 01:24:00;;;;;;;;;;;24.60;46.00;;;;;;491762;240;1328;-71
2022/07/29 01:26:01;;;;;;;;;;;24.60;46.00;;;;;;491666;240;1195;-71
2022/07/29 01:28:02;;;;;;;;;;;24.60;46.20;;;;;;491682;240;2125;-71
2022/07/29 01:30:03;;;;;;;;;;;24.50;46.40;;;;;;491691;240;1277;-71
2022/07/29 01:32:05;;;;;;;;;;;24.50;46.50;;;;;;491619;240;1217;-71
2022/07/29 01:34:06;;;;;;;;;;;24.50;46.40;;;;;;491635;240;1245;-71
2022/07/29 01:36:07;;;;;;;;;;;24.50;46.40;;;;;;491691;240;1245;-71
2022/07/29 01:38:09;;;;;;;;;;;24.50;46.20;;;;;;491598;240;1179;-71
2022/07/29 01:40:10;;;;;;;;;;;24.60;46.30;;;;;;491657;240;933;-71
2022/07/29 01:42:11;;;;;;;;;;;24.60;46.20;;;;;;491664;240;1031;-71
2022/07/29 01:44:13;;;;;;;;;;;24.60;46.30;;;;;;491663;240;1199;-71
2022/07/29 01:46:14;;;;;;;;;;;24.60;46.20;;;;;;491632;240;1166;-71
2022/07/29 01:48:15;;;;;;;;;;;24.60;46.30;;;;;;491653;240;2184;-71
2022/07/29 01:50:17;;;;;;;;;;;24.60;46.10;;;;;;491679;240;1162;-71
2022/07/29 01:52:18;;;;;;;;;;;24.60;46.10;;;;;;491658;240;1115;-71
2022/07/29 01:54:19;;;;;;;;;;;24.60;46.10;;;;;;491704;240;899;-71
2022/07/29 01:56:21;;;;;;;;;;;24.60;46.20;;;;;;491746;240;937;-71
2022/07/29 01:58:22;;;;;;;;;;;24.60;46.20;;;;;;491710;240;1227;-71
2022/07/29 02:00:23;;;;;;;;;;;24.60;46.20;;;;;;491693;240;1142;-71
2022/07/29 02:02:25;;;;;;;;;;;24.60;46.20;;;;;;491639;240;1553;-71
2022/07/29 02:04:26;;;;;;;;;;;24.60;46.20;;;;;;491645;240;1150;-71
2022/07/29 02:06:27;;;;;;;;;;;24.60;46.30;;;;;;491516;240;1151;-71
2022/07/29 02:08:29;;;;;;;;;;;24.50;46.50;;;;;;491578;240;2191;-71
2022/07/29 02:10:30;;;;;;;;;;;24.60;46.40;;;;;;491633;240;1164;-71
2022/07/29 02:12:32;;;;;;;;;;;24.60;46.30;;;;;;491624;240;1278;-71
2022/07/29 02:14:33;;;;;;;;;;;24.70;46.20;;;;;;491650;240;1455;-71
2022/07/29 02:16:34;;;;;;;;;;;24.60;46.10;;;;;;491617;240;1285;-71
2022/07/29 02:18:36;;;;;;;;;;;24.60;46.30;;;;;;491726;240;1109;-71
2022/07/29 02:20:37;;;;;;;;;;;24.60;46.40;;;;;;491682;240;1183;-71
2022/07/29 02:22:38;;;;;;;;;;;24.50;46.40;;;;;;491623;240;1295;-71
2022/07/29 02:24:40;;;;;;;;;;;24.50;46.50;;;;;;491614;240;1118;-71
2022/07/29 02:26:41;;;;;;;;;;;24.60;46.50;;;;;;491675;240;1233;-71
2022/07/29 02:28:43;;;;;;;;;;;24.60;46.30;;;;;;491658;240;2112;-71
2022/07/29 02:30:44;;;;;;;;;;;24.60;46.20;;;;;;491690;240;1143;-71
2022/07/29 02:32:46;;;;;;;;;;;24.70;46.30;;;;;;491673;240;1252;-71
2022/07/29 02:34:47;;;;;;;;;;;24.60;46.20;;;;;;491665;240;1261;-71
2022/07/29 02:36:48;;;;;;;;;;;24.60;46.30;;;;;;491611;240;1134;-71
2022/07/29 02:38:53;;;;;;;;;;;24.60;46.30;;;;;;491649;240;1172;-71
2022/07/29 02:40:54;;;;;;;;;;;24.60;46.30;;;;;;491700;240;2169;-71
2022/07/29 02:42:55;;;;;;;;;;;24.60;46.40;;;;;;491699;240;1238;-71
2022/07/29 02:44:56;;;;;;;;;;;24.60;46.50;;;;;;491682;240;1226;-71
2022/07/29 02:46:58;;;;;;;;;;;24.50;46.60;;;;;;491617;240;1283;-71
2022/07/29 02:48:59;;;;;;;;;;;24.10;47.30;;;;;;491628;240;2109;-71
2022/07/29 02:51:00;;;;;;;;;;;24.20;47.30;;;;;;491679;240;1181;-71
2022/07/29 02:53:02;;;;;;;;;;;24.30;47.00;;;;;;491635;240;1219;-71
2022/07/29 02:55:03;;;;;;;;;;;24.40;46.90;;;;;;491677;240;1174;-71
2022/07/29 02:57:04;;;;;;;;;;;24.50;46.70;;;;;;491669;240;1101;-71
2022/07/29 02:59:06;;;;;;;;;;;24.40;46.80;;;;;;491721;240;1204;-71
2022/07/29 03:01:07;;;;;;;;;;;24.40;46.70;;;;;;491694;240;1345;-71
2022/07/29 03:03:08;;;;;;;;;;;24.50;46.80;;;;;;491715;240;1062;-71
2022/07/29 03:05:10;;;;;;;;;;;24.50;46.80;;;;;;491720;240;933;-71
2022/07/29 03:07:11;;;;;;;;;;;24.50;46.90;;;;;;491646;240;1112;-71
2022/07/29 03:09:13;;;;;;;;;;;24.40;46.80;;;;;;491660;240;2176;-71
2022/07/29 03:11:14;;;;;;;;;;;24.40;46.90;;;;;;491668;240;1220;-71
2022/07/29 03:13:15;;;;;;;;;;;24.50;46.80;;;;;;491649;240;1085;-71
2022/07/29 03:15:17;;;;;;;;;;;24.60;46.60;;;;;;491671;240;1216;-71
2022/07/29 03:17:18;;;;;;;;;;;24.60;46.60;;;;;;491714;240;1126;-70
2022/07/29 03:19:20;;;;;;;;;;;24.60;46.50;;;;;;491688;240;1633;-70
2022/07/29 03:21:22;;;;;;;;;;;24.50;46.60;;;;;;491700;240;1159;-70
2022/07/29 03:23:23;;;;;;;;;;;24.50;46.70;;;;;;491692;240;1096;-71
2022/07/29 03:25:24;;;;;;;;;;;24.40;46.70;;;;;;491656;240;1357;-71
2022/07/29 03:27:25;;;;;;;;;;;24.40;46.80;;;;;;491724;240;1179;-71
2022/07/29 03:29:27;;;;;;;;;;;24.40;46.80;;;;;;491692;240;2257;-71
2022/07/29 03:31:28;;;;;;;;;;;24.40;46.70;;;;;;491732;240;1208;-71
2022/07/29 03:33:30;;;;;;;;;;;24.50;46.70;;;;;;491705;240;1205;-71
2022/07/29 03:35:31;;;;;;;;;;;24.40;46.70;;;;;;491815;240;1169;-71
2022/07/29 03:37:33;;;;;;;;;;;24.40;46.80;;;;;;491707;240;1246;-70
2022/07/29 03:39:34;;;;;;;;;;;24.50;46.70;;;;;;491722;240;1021;-70
2022/07/29 03:41:36;;;;;;;;;;;24.50;46.70;;;;;;491696;240;1135;-70
2022/07/29 03:43:37;;;;;;;;;;;24.40;46.60;;;;;;491607;240;1054;-70
2022/07/29 03:45:38;;;;;;;;;;;24.50;46.70;;;;;;491662;240;1296;-70
2022/07/29 03:47:40;;;;;;;;;;;24.50;46.50;;;;;;491650;240;965;-70
2022/07/29 03:49:41;;;;;;;;;;;24.50;46.40;;;;;;491586;240;2101;-70
2022/07/29 03:51:43;;;;;;;;;;;24.30;46.90;;;;;;491620;240;1134;-71
2022/07/29 03:53:44;;;;;;;;;;;24.30;46.90;;;;;;491601;240;1107;-71
2022/07/29 03:55:45;;;;;;;;;;;24.30;46.90;;;;;;491536;240;1114;-70
2022/07/29 03:57:47;;;;;;;;;;;24.30;47.00;;;;;;491568;240;1070;-70
2022/07/29 03:59:48;;;;;;;;;;;24.30;46.90;;;;;;491605;240;1216;-70
2022/07/29 04:01:49;;;;;;;;;;;24.40;46.90;;;;;;491635;240;1082;-70
2022/07/29 04:03:51;;;;;;;;;;;24.30;46.80;;;;;;491554;240;1168;-72
2022/07/29 04:05:52;;;;;;;;;;;24.40;46.80;;;;;;491459;240;1288;-72
2022/07/29 04:07:53;;;;;;;;;;;24.40;46.80;;;;;;491395;240;1174;-72
2022/07/29 04:09:55;;;;;;;;;;;24.40;46.80;;;;;;491430;240;2116;-72
2022/07/29 04:11:56;;;;;;;;;;;24.50;46.70;;;;;;491442;240;1206;-73
2022/07/29 04:13:57;;;;;;;;;;;24.50;46.50;;;;;;491450;240;1116;-72
2022/07/29 04:15:59;;;;;;;;;;;24.40;46.70;;;;;;491412;240;1226;-72
2022/07/29 04:18:00;;;;;;;;;;;24.20;47.10;;;;;;491443;240;1116;-72
2022/07/29 04:20:01;;;;;;;;;;;24.30;47.00;;;;;;491466;240;1086;-73
2022/07/29 04:22:03;;;;;;;;;;;24.20;47.10;;;;;;491396;240;1103;-73
2022/07/29 04:24:04;;;;;;;;;;;24.30;46.90;;;;;;491535;240;981;-73
2022/07/29 04:26:05;;;;;;;;;;;24.40;46.80;;;;;;491494;240;1046;-73
2022/07/29 04:28:07;;;;;;;;;;;24.40;46.90;;;;;;491494;240;1004;-73
2022/07/29 04:30:08;;;;;;;;;;;24.40;46.80;;;;;;491387;240;2172;-72
2022/07/29 04:32:10;;;;;;;;;;;24.50;46.60;;;;;;491474;240;1206;-72
2022/07/29 04:34:11;;;;;;;;;;;24.50;46.50;;;;;;491454;240;1130;-72
2022/07/29 04:36:12;;;;;;;;;;;24.50;46.50;;;;;;491406;240;1172;-72
2022/07/29 04:38:13;;;;;;;;;;;24.40;46.50;;;;;;491364;240;1154;-72
2022/07/29 04:40:15;;;;;;;;;;;24.50;46.60;;;;;;491507;240;1204;-72
2022/07/29 04:42:16;;;;;;;;;;;24.40;46.60;;;;;;491355;240;1287;-72
2022/07/29 04:44:17;;;;;;;;;;;24.50;46.60;;;;;;491383;240;1064;-72
2022/07/29 04:46:19;;;;;;;;;;;24.50;46.60;;;;;;491372;240;1176;-72
2022/07/29 04:48:20;;;;;;;;;;;24.40;46.60;;;;;;491267;240;2196;-72
2022/07/29 04:50:21;;;;;;;;;;;24.20;47.10;;;;;;491346;240;1109;-72
2022/07/29 04:52:23;;;;;;;;;;;24.30;47.10;;;;;;491369;240;1098;-73
2022/07/29 04:54:24;;;;;;;;;;;24.30;46.80;;;;;;491518;240;1136;-73
2022/07/29 04:56:25;;;;;;;;;;;24.40;46.80;;;;;;491469;240;1216;-73
2022/07/29 04:58:27;;;;;;;;;;;24.30;46.80;;;;;;491488;240;1191;-73
2022/07/29 05:00:28;;;;;;;;;;;24.40;46.70;;;;;;491476;240;1233;-73
2022/07/29 05:02:29;;;;;;;;;;;24.30;46.70;;;;;;491380;240;1034;-72
2022/07/29 05:04:31;;;;;;;;;;;24.40;46.60;;;;;;491435;240;963;-72
2022/07/29 05:06:32;;;;;;;;;;;24.50;46.50;;;;;;491327;240;1001;-72
2022/07/29 05:08:33;;;;;;;;;;;24.50;46.50;;;;;;491381;240;2191;-72
2022/07/29 05:10:37;;;;;;;;;;;24.40;46.60;;;;;;491391;240;966;-73
2022/07/29 05:12:36;;;;;;;;;;;24.40;46.60;;;;;;491527;240;1898;-73
2022/07/29 05:14:38;;;;;;;;;;;24.40;46.60;;;;;;491395;240;989;-72
2022/07/29 05:16:39;;;;;;;;;;;24.20;47.00;;;;;;491379;240;1313;-72
2022/07/29 05:18:41;;;;;;;;;;;24.40;46.90;;;;;;491393;240;1100;-72
2022/07/29 05:20:42;;;;;;;;;;;24.40;46.80;;;;;;491436;240;1165;-72
2022/07/29 05:22:43;;;;;;;;;;;24.30;46.70;;;;;;491309;240;1147;-72
2022/07/29 05:24:44;;;;;;;;;;;24.40;46.70;;;;;;491237;240;1141;-72
2022/07/29 05:26:46;;;;;;;;;;;24.10;47.10;;;;;;491262;240;1115;-72
2022/07/29 05:28:47;;;;;;;;;;;24.20;47.20;;;;;;491230;240;2101;-72
2022/07/29 05:30:49;;;;;;;;;;;24.30;47.00;;;;;;491243;240;1170;-73
2022/07/29 05:32:50;;;;;;;;;;;24.40;46.70;;;;;;491327;240;2314;-72
2022/07/29 05:34:52;;;;;;;;;;;24.40;46.60;;;;;;491317;240;1200;-72
2022/07/29 05:36:53;;;;;;;;;;;24.50;46.50;;;;;;491377;240;2300;-72
2022/07/29 05:38:54;;;;;;;;;;;24.40;46.50;;;;;;491291;240;1220;-72
2022/07/29 05:40:56;;;;;;;;;;;24.50;46.60;;;;;;491259;240;1119;-72
2022/07/29 05:42:57;;;;;;;;;;;24.50;46.40;;;;;;491361;240;1302;-73
2022/07/29 05:44:58;;;;;;;;;;;24.50;46.50;;;;;;491268;240;1142;-73
2022/07/29 05:47:00;;;;;;;;;;;24.50;46.50;;;;;;491354;240;1199;-73
2022/07/29 05:49:02;;;;;;;;;;;24.50;46.40;;;;;;491305;240;2204;-73
2022/07/29 05:51:02;;;;;;;;;;;24.50;46.40;;;;;;491336;240;2061;-73
2022/07/29 05:53:04;;;;;;;;;;;24.50;46.50;;;;;;491334;240;1182;-73
2022/07/29 05:55:05;;;;;;;;;;;24.30;47.00;;;;;;491279;240;1144;-73
2022/07/29 05:57:06;;;;;;;;;;;24.30;47.00;;;;;;491259;240;1128;-73
2022/07/29 05:59:08;;;;;;;;;;;24.30;47.00;;;;;;491075;240;1163;-72
2022/07/29 06:01:09;;;;;;;;;;;24.50;46.80;;;;;;491185;240;1187;-72
2022/07/29 06:03:11;;;;;;;;;;;24.50;46.60;;;;;;491203;240;1060;-73
2022/07/29 06:05:12;;;;;;;;;;;24.50;46.60;;;;;;491267;240;1078;-73
2022/07/29 06:07:13;;;;;;;;;;;24.50;46.70;;;;;;491194;240;1296;-73
2022/07/29 06:09:15;;;;;;;;;;;24.50;46.60;;;;;;491118;240;2121;-73
2022/07/29 06:11:16;;;;;;;;;;;24.50;46.50;;;;;;491193;240;1155;-72
2022/07/29 06:13:18;;;;;;;;;;;24.40;46.70;;;;;;491179;240;1194;-73
2022/07/29 06:15:19;;;;;;;;;;;24.50;46.60;;;;;;491233;240;1139;-72
2022/07/29 06:17:20;;;;;;;;;;;24.60;46.40;;;;;;491176;240;1190;-72
2022/07/29 06:19:22;;;;;;;;;;;24.60;46.40;;;;;;491298;240;1132;-72
2022/07/29 06:21:23;;;;;;;;;;;24.60;46.40;;;;;;491225;240;1215;-72
2022/07/29 06:23:24;;;;;;;;;;;24.60;46.40;;;;;;491192;240;1207;-72
2022/07/29 06:25:26;;;;;;;;;;;24.50;46.60;;;;;;491133;240;1046;-73
2022/07/29 06:27:27;;;;;;;;;;;24.50;46.60;;;;;;491197;240;1231;-73
2022/07/29 06:29:28;;;;;;;;;;;24.40;46.80;;;;;;491173;240;2115;-72
2022/07/29 06:31:30;;;;;;;;;;;24.50;46.70;;;;;;491175;240;1311;-73
2022/07/29 06:33:31;;;;;;;;;;;24.50;46.60;;;;;;491057;240;1089;-72
2022/07/29 06:35:32;;;;;;;;;;;24.50;46.60;;;;;;490988;240;1299;-72
2022/07/29 06:37:34;;;;;;;;;;;24.40;47.00;;;;;;490973;240;1121;-72
2022/07/29 06:39:35;;;;;;;;;;;24.40;47.10;;;;;;491116;240;1442;-72
2022/07/29 06:41:37;;;;;;;;;;;24.40;46.90;;;;;;491125;240;1224;-72
2022/07/29 06:43:38;;;;;;;;;;;24.40;46.70;;;;;;491011;240;1104;-72
2022/07/29 06:45:40;;;;;;;;;;;24.50;46.60;;;;;;491011;240;1113;-72
2022/07/29 06:47:42;;;;;;;;;;;24.60;46.60;;;;;;490986;240;1208;-72
2022/07/29 06:49:43;;;;;;;;;;;24.70;46.40;;;;;;491007;240;2193;-72
2022/07/29 06:51:44;;;;;;;;;;;24.60;46.30;;;;;;490839;240;1103;-73
2022/07/29 06:53:46;;;;;;;;;;;24.60;46.40;;;;;;491024;240;1145;-72
2022/07/29 06:55:47;;;;;;;;;;;24.70;46.40;;;;;;491082;240;1178;-72
2022/07/29 06:57:48;;;;;;;;;;;24.70;46.30;;;;;;490946;240;1144;-74
2022/07/29 06:59:50;;;;;;;;;;;24.70;46.30;;;;;;490957;240;1074;-72
2022/07/29 07:01:51;;;;;;;;;;;24.70;46.30;;;;;;491082;240;1112;-72
2022/07/29 07:03:53;;;;;;;;;;;24.70;46.40;;;;;;491002;240;1141;-72
2022/07/29 07:05:54;;;;;;;;;;;24.70;46.30;;;;;;490915;240;1197;-72
2022/07/29 07:07:55;;;;;;;;;;;24.70;46.30;;;;;;490945;240;1144;-72
2022/07/29 07:09:57;;;;;;;;;;;24.50;46.70;;;;;;491030;240;2187;-73
2022/07/29 07:11:58;;;;;;;;;;;23.90;47.90;;;;;;491036;240;1235;-73
2022/07/29 07:13:59;;;;;;;;;;;24.10;48.10;;;;;;490842;240;1016;-73
2022/07/29 07:16:01;;;;;;;;;;;24.00;47.90;;;;;;490840;240;1297;-73
2022/07/29 07:18:02;;;;;;;;;;;24.00;48.20;;;;;;490979;240;1223;-73
2022/07/29 07:20:04;;;;;;;;;;;24.30;47.50;;;;;;490976;240;1197;-73
2022/07/29 07:22:04;;;;;;;;;;;24.60;47.00;;;;;;490917;240;1403;-73
2022/07/29 07:24:06;;;;;;;;;;;24.60;46.80;;;;;;490931;240;1106;-73
2022/07/29 07:26:07;;;;;;;;;;;24.70;46.50;;;;;;490916;240;1321;-73
2022/07/29 07:28:09;;;;;;;;;;;24.80;46.30;;;;;;490980;240;1225;-73
2022/07/29 07:30:10;;;;;;;;;;;24.80;46.20;;;;;;490819;240;2236;-73
2022/07/29 07:32:12;;;;;;;;;;;24.80;46.20;;;;;;490833;240;1153;-73
2022/07/29 07:34:13;;;;;;;;;;;24.80;46.40;;;;;;490785;240;1140;-73
2022/07/29 07:36:15;;;;;;;;;;;24.80;46.20;;;;;;490712;240;1183;-73
2022/07/29 07:38:16;;;;;;;;;;;24.90;46.20;;;;;;490952;240;1243;-73
2022/07/29 07:40:17;;;;;;;;;;;24.90;46.20;;;;;;490502;240;1159;-73
2022/07/29 07:42:19;;;;;;;;;;;24.80;46.20;;;;;;490906;240;1164;-73
2022/07/29 07:44:20;;;;;;;;;;;24.80;46.40;;;;;;490675;240;1253;-73
2022/07/29 07:46:21;;;;;;;;;;;24.80;46.40;;;;;;490682;240;1113;-73
2022/07/29 07:48:23;;;;;;;;;;;24.80;46.40;;;;;;490658;240;1163;-73
2022/07/29 07:50:24;;;;;;;;;;;24.70;46.50;;;;;;490532;240;2173;-73
2022/07/29 07:52:25;;;;;;;;;;;24.80;46.40;;;;;;490651;240;1106;-73
2022/07/29 07:54:27;;;;;;;;;;;24.90;46.40;;;;;;490650;240;1169;-73
2022/07/29 07:56:28;;;;;;;;;;;24.80;46.50;;;;;;490855;240;1256;-73
2022/07/29 07:58:29;;;;;;;;;;;24.80;46.50;;;;;;490770;240;1209;-73
2022/07/29 08:00:32;;;;;;;;;;;24.90;46.40;;;;;;490703;240;1066;-73
2022/07/29 08:02:32;;;;;;;;;;;24.80;46.40;;;;;;490598;240;2137;-73
2022/07/29 08:04:34;;;;;;;;;;;24.80;46.50;;;;;;490722;240;1059;-73
2022/07/29 08:06:36;;;;;;;;;;;24.80;46.40;;;;;;490812;240;1281;-73
2022/07/29 08:08:36;;;;;;;;;;;24.80;46.50;;;;;;490828;240;2315;-73
2022/07/29 08:10:53;;;;;;;;;;;24.70;46.60;;;;;;490789;240;2180;-73
2022/07/29 08:12:54;;;;;;;;;;;24.80;46.70;;;;;;490711;240;1322;-73
2022/07/29 08:14:56;;;;;;;;;;;24.80;46.60;;;;;;490706;240;1063;-73
2022/07/29 08:16:57;;;;;;;;;;;24.80;46.50;;;;;;490723;240;1192;-73
2022/07/29 08:18:58;;;;;;;;;;;24.90;46.40;;;;;;490910;240;1231;-73
2022/07/29 08:21:00;;;;;;;;;;;24.80;46.40;;;;;;490861;240;1382;-73
2022/07/29 08:23:01;;;;;;;;;;;24.90;46.50;;;;;;490838;240;1349;-73
2022/07/29 08:25:02;;;;;;;;;;;24.90;46.40;;;;;;490649;240;1155;-73
2022/07/29 08:27:04;;;;;;;;;;;24.70;46.60;;;;;;490739;240;1158;-73
2022/07/29 08:29:05;;;;;;;;;;;24.50;47.20;;;;;;490776;240;1134;-73
2022/07/29 08:31:06;;;;;;;;;;;24.50;47.30;;;;;;490675;240;2183;-73
2022/07/29 08:33:08;;;;;;;;;;;24.50;47.20;;;;;;490686;240;1200;-72
2022/07/29 08:35:09;;;;;;;;;;;24.70;46.80;;;;;;490884;240;1209;-72
2022/07/29 08:37:10;;;;;;;;;;;24.70;46.70;;;;;;490820;240;1163;-73
2022/07/29 08:39:12;;;;;;;;;;;24.70;46.80;;;;;;490884;240;1085;-73
2022/07/29 08:41:13;;;;;;;;;;;24.60;46.90;;;;;;490695;240;1211;-73
2022/07/29 08:43:14;;;;;;;;;;;24.60;47.00;;;;;;490773;240;1226;-73
2022/07/29 08:45:16;;;;;;;;;;;24.30;47.60;;;;;;490725;240;1203;-73
2022/07/29 08:47:17;;;;;;;;;;;24.50;47.30;;;;;;490829;240;1159;-73
2022/07/29 08:49:19;;;;;;;;;;;24.70;47.00;;;;;;490900;240;1207;-72
2022/07/29 08:51:20;;;;;;;;;;;24.70;46.70;;;;;;490819;240;2192;-72
2022/07/29 08:53:21;;;;;;;;;;;24.70;46.70;;;;;;490848;240;1176;-72
2022/07/29 08:55:23;;;;;;;;;;;24.80;46.60;;;;;;490891;240;1209;-72
2022/07/29 08:57:24;;;;;;;;;;;24.80;46.60;;;;;;490877;240;1170;-73
2022/07/29 08:59:26;;;;;;;;;;;24.70;46.60;;;;;;490872;240;1159;-72
2022/07/29 09:01:27;;;;;;;;;;;24.70;46.60;;;;;;490728;241;1135;-72
2022/07/29 09:03:29;;;;;;;;;;;24.80;46.60;;;;;;490697;240;1393;-73
2022/07/29 09:05:30;;;;;;;;;;;24.80;46.50;;;;;;490730;240;1288;-73
2022/07/29 09:07:32;;;;;;;;;;;24.80;46.50;;;;;;490799;240;1180;-73
2022/07/29 09:09:33;;;;;;;;;;;24.90;46.50;;;;;;490647;240;1168;-73
2022/07/29 09:11:34;;;;;;;;;;;24.80;46.50;;;;;;490620;240;2192;-72
2022/07/29 09:13:36;;;;;;;;;;;24.80;46.40;;;;;;490842;240;1295;-73
2022/07/29 09:15:37;;;;;;;;;;;24.70;46.60;;;;;;490870;240;1197;-73
2022/07/29 09:17:38;;;;;;;;;;;24.70;46.60;;;;;;490848;240;1269;-73
2022/07/29 09:19:40;;;;;;;;;;;24.80;46.60;;;;;;490761;240;1202;-73
2022/07/29 09:21:59;;;;;;;;;;;24.80;46.50;;;;;;490744;240;1141;-73
2022/07/29 09:24:00;;;;;;;;;;;24.80;46.60;;;;;;491061;240;1267;-73
2022/07/29 09:26:02;;;;;;;;;;;24.90;46.40;;;;;;490764;240;1292;-73
2022/07/29 09:28:03;;;;;;;;;;;24.90;46.50;;;;;;490987;240;1163;-73
2022/07/29 09:30:05;;;;;;;;;;;24.80;46.50;;;;;;490937;240;2184;-73
2022/07/29 09:32:06;;;;;;;;;;;24.80;46.40;;;;;;490652;240;1162;-73
2022/07/29 09:34:07;;;;;;;;;;;24.80;46.50;;;;;;490690;240;1193;-72
2022/07/29 09:36:08;;;;;;;;;;;24.40;47.20;;;;;;490754;240;1303;-73
2022/07/29 09:38:10;;;;;;;;;;;24.30;47.60;;;;;;490742;240;1327;-72
2022/07/29 09:40:11;;;;;;;;;;;24.30;47.70;;;;;;490687;240;1248;-72
2022/07/29 09:42:13;;;;;;;;;;;24.50;47.40;;;;;;490657;240;1155;-73
2022/07/29 09:44:14;;;;;;;;;;;24.60;47.20;;;;;;490987;240;1203;-73
2022/07/29 09:46:15;;;;;;;;;;;24.50;47.20;;;;;;490855;240;1150;-72
2022/07/29 09:48:17;;;;;;;;;;;24.60;47.10;;;;;;490740;240;1108;-72
2022/07/29 09:50:23;;;;;;;;;;;24.70;46.90;;;;;;490886;240;2196;-72
2022/07/29 09:52:20;;;;;;;;;;;24.70;46.80;;;;;;491064;240;2238;-72
2022/07/29 09:54:21;;;;;;;;;;;24.70;46.80;;;;;;490760;240;1052;-72
2022/07/29 09:56:23;;;;;;;;;;;24.80;46.60;;;;;;490697;240;1167;-73
2022/07/29 09:58:24;;;;;;;;;;;24.80;46.60;;;;;;490779;240;1766;-72
2022/07/29 10:00:25;;;;;;;;;;;24.70;46.70;;;;;;490879;240;1142;-72
2022/07/29 10:02:27;;;;;;;;;;;24.80;46.70;;;;;;490873;240;1067;-73
2022/07/29 10:04:28;;;;;;;;;;;24.80;46.70;;;;;;490694;240;1207;-73
2022/07/29 10:06:30;;;;;;;;;;;24.80;46.70;;;;;;490755;240;1343;-73
2022/07/29 10:08:31;;;;;;;;;;;24.80;46.50;;;;;;490667;240;1040;-72
2022/07/29 10:10:33;;;;;;;;;;;24.80;46.50;;;;;;490694;240;2183;-72
2022/07/29 10:12:34;;;;;;;;;;;24.80;46.60;;;;;;490805;240;2415;-72
2022/07/29 10:14:35;;;;;;;;;;;24.80;46.40;;;;;;490721;240;1089;-72
2022/07/29 10:16:36;;;;;;;;;;;24.80;46.50;;;;;;490858;240;1208;-72
2022/07/29 10:18:38;;;;;;;;;;;24.90;46.50;;;;;;490944;240;1231;-72
2022/07/29 10:20:39;;;;;;;;;;;24.90;46.50;;;;;;490923;240;1207;-72
2022/07/29 10:22:40;;;;;;;;;;;24.90;46.50;;;;;;490925;240;1043;-72
2022/07/29 10:24:42;;;;;;;;;;;24.90;46.50;;;;;;490848;240;1152;-72
2022/07/29 10:26:44;;;;;;;;;;;24.90;46.50;;;;;;490848;240;1150;-73
2022/07/29 10:28:44;;;;;;;;;;;24.80;46.60;;;;;;490772;240;2118;-73
2022/07/29 10:30:46;;;;;;;;;;;24.80;46.80;;;;;;490757;240;2184;-73
2022/07/29 10:32:47;;;;;;;;;;;24.80;46.70;;;;;;490798;240;1206;-73
2022/07/29 10:34:48;;;;;;;;;;;24.80;46.70;;;;;;491048;240;1294;-72
2022/07/29 10:36:50;;;;;;;;;;;24.80;46.80;;;;;;491007;240;1223;-72
2022/07/29 10:38:51;;;;;;;;;;;24.80;46.80;;;;;;490915;240;1015;-72
2022/07/29 10:43:11;;;;;;;;;;;24.80;46.60;;;;;;490923;242;1297;-72
2022/07/29 10:45:13;;;;;;;;;;;24.80;46.50;;;;;;490856;240;1212;-72
2022/07/29 10:47:14;;;;;;;;;;;24.80;46.50;;;;;;490797;240;1124;-73
2022/07/29 10:49:15;;;;;;;;;;;24.80;46.70;;;;;;490861;240;1116;-73
2022/07/29 10:51:18;;;;;;;;;;;24.70;46.70;;;;;;490884;240;2172;-73
2022/07/29 10:53:18;;;;;;;;;;;24.70;46.70;;;;;;490903;240;1476;-73
2022/07/29 10:55:19;;;;;;;;;;;24.80;46.70;;;;;;490882;240;1144;-72
2022/07/29 10:57:21;;;;;;;;;;;24.70;46.80;;;;;;490884;240;1235;-73
2022/07/29 10:59:23;;;;;;;;;;;24.70;47.00;;;;;;490897;240;1133;-72
2022/07/29 11:01:23;;;;;;;;;;;24.80;46.90;;;;;;490912;240;1483;-73
2022/07/29 11:03:25;;;;;;;;;;;24.80;46.70;;;;;;490972;240;1190;-73
2022/07/29 11:05:29;;;;;;;;;;;24.70;46.80;;;;;;490859;240;1139;-73
2022/07/29 11:07:29;;;;;;;;;;;24.70;46.90;;;;;;490727;240;2180;-72
2022/07/29 11:09:30;;;;;;;;;;;24.60;47.00;;;;;;490886;240;2139;-72
2022/07/29 11:11:31;;;;;;;;;;;24.60;47.10;;;;;;490858;240;2188;-73
2022/07/29 11:13:32;;;;;;;;;;;24.70;47.10;;;;;;490889;240;1071;-73
2022/07/29 11:15:33;;;;;;;;;;;24.70;46.90;;;;;;490746;240;1135;-72
2022/07/29 11:17:35;;;;;;;;;;;24.80;46.80;;;;;;490949;240;1058;-73
2022/07/29 11:19:41;;;;;;;;;;;24.70;46.90;;;;;;491038;240;1033;-73
2022/07/29 11:21:38;;;;;;;;;;;24.70;46.90;;;;;;491072;240;2230;-73
2022/07/29 11:23:42;;;;;;;;;;;24.70;46.90;;;;;;490940;240;1043;-72
2022/07/29 11:25:40;;;;;;;;;;;24.80;46.80;;;;;;490937;240;2144;-73
2022/07/29 11:27:42;;;;;;;;;;;24.70;46.90;;;;;;491002;240;980;-73
2022/07/29 11:29:43;;;;;;;;;;;24.60;47.00;;;;;;490883;240;1063;-73
2022/07/29 11:31:44;;;;;;;;;;;24.60;47.20;;;;;;490996;240;2121;-73
2022/07/29 11:33:46;;;;;;;;;;;24.70;47.10;;;;;;490973;240;1153;-72
2022/07/29 11:35:47;;;;;;;;;;;24.70;46.90;;;;;;491067;240;1198;-73
2022/07/29 11:37:48;;;;;;;;;;;24.70;46.80;;;;;;491094;240;2116;-73
2022/07/29 11:39:50;;;;;;;;;;;24.70;46.80;;;;;;491036;240;949;-72
2022/07/29 11:41:51;;;;;;;;;;;24.70;46.80;;;;;;491081;240;1154;-72
2022/07/29 11:43:52;;;;;;;;;;;24.80;46.80;;;;;;491060;240;1007;-72
2022/07/29 11:45:54;;;;;;;;;;;24.70;46.80;;;;;;490966;240;1221;-72
2022/07/29 11:47:57;;;;;;;;;;;24.80;46.80;;;;;;491028;240;1144;-72
2022/07/29 11:49:56;;;;;;;;;;;24.80;46.80;;;;;;490951;240;1823;-73
2022/07/29 11:52:00;;;;;;;;;;;24.80;46.70;;;;;;490901;240;2200;-73
2022/07/29 11:53:59;;;;;;;;;;;24.80;46.60;;;;;;490915;240;2273;-73
2022/07/29 11:56:00;;;;;;;;;;;24.80;46.50;;;;;;490877;240;1473;-72
2022/07/29 11:58:02;;;;;;;;;;;24.80;46.40;;;;;;490845;240;1252;-73
2022/07/29 12:00:03;;;;;;;;;;;24.80;46.30;;;;;;490896;240;1305;-72
2022/07/29 12:02:04;;;;;;;;;;;24.80;46.30;;;;;;490815;240;1232;-73